Holstein, Nebraska
Current Conditions -  °F | °C
As of 3:53 AM on Sunday 25 Jan 2015 (Local Time) from KHSI Reporting Station
Light Rain Light Rain  
Wind Chill: 30°   Ceiling: 2300
Heat Index: 40°   Visibility: 10mi
Dew Point: 34°   Wind: 23mph
Humidity: 79%   Direction: 330°NNW
Pressure: 29.83"   Gusts: 35mph
Location:  40.47°N, 98.65°W
Report Text: KHSI 250953Z AUTO 33020G30KT 10SM -RA BKN023 OVC029 04/01 A2983 RMK AO2 PK WND 33036/0919 RAB17 SLP104 P0000 T00440011
Loading
Personal Weather Stations






























Interactive Weather Map New forecast layout! Learn more

10-Day Weather Forecast

Advertisements
Track Severe Weather on mobile